Time;durP1;ratioP1;P1;durP2;ratioP2;P2;SDS_P1;SDS_P2;PMS_P1;PMS_P2;Temp;Humidity;BMP_temperature;BMP_pressure;BME280_temperature;BME280_humidity;BME280_pressure;Samples;Min_cycle;Max_cycle;Signal;HPM_P1;HPM_P2
2021/06/15 00:01:12;;;;;;;18.77;2.70;;;;;;;;;;4796625;28;20192;-79
2021/06/15 00:03:35;;;;;;;7.53;1.30;;;;;;;;;;4799540;28;20183;-78
2021/06/15 00:05:59;;;;;;;11.63;1.87;;;8.30;1.00;;;;;;4799324;28;20603;-79
2021/06/15 00:08:22;;;;;;;9.23;1.50;;;;;;;;;;4799011;28;20192;-76
2021/06/15 00:10:45;;;;;;;4.80;0.93;;;;;;;;;;4799204;28;20188;-80
2021/06/15 00:13:08;;;;;;;23.47;3.17;;;;;;;;;;4798439;28;20205;-79
2021/06/15 00:15:31;;;;;;;11.43;1.73;;;;;;;;;;4799213;28;20184;-80
2021/06/15 00:17:53;;;;;;;6.43;1.10;;;;;;;;;;4799342;28;20208;-79
2021/06/15 00:20:16;;;;;;;18.07;2.60;;;8.10;1.00;;;;;;4798636;28;20200;-80
2021/06/15 00:22:41;;;;;;;8.60;1.43;;;8.10;1.00;;;;;;4798121;28;20239;-79
2021/06/15 00:25:04;;;;;;;9.70;1.47;;;8.10;1.00;;;;;;4799123;28;20191;-75
2021/06/15 00:27:29;;;;;;;9.93;1.53;;;;;;;;;;4795268;28;20239;-79
2021/06/15 00:29:52;;;;;;;12.47;1.93;;;;;;;;;;4797222;28;20264;-77
2021/06/15 00:32:14;;;;;;;15.33;2.23;;;;;;;;;;4798313;28;20184;-79
2021/06/15 00:34:37;;;;;;;8.47;1.30;;;;;;;;;;4799163;28;20584;-79
2021/06/15 00:37:00;;;;;;;9.30;1.50;;;;;;;;;;4799056;28;20291;-80
2021/06/15 00:39:24;;;;;;;7.57;1.27;;;7.90;1.00;;;;;;4798866;28;20196;-78
2021/06/15 00:41:47;;;;;;;9.17;1.37;;;;;;;;;;4802516;28;20192;-76
2021/06/15 00:44:11;;;;;;;22.60;3.20;;;;;;;;;;4801907;28;20191;-79
2021/06/15 00:46:35;;;;;;;7.77;1.27;;;7.80;1.00;;;;;;4802643;28;20192;-79
2021/06/15 00:48:58;;;;;;;9.13;1.47;;;;;;;;;;4800874;28;20605;-80
2021/06/15 00:51:22;;;;;;;10.60;1.67;;;7.70;1.00;;;;;;4800585;28;20510;-80
2021/06/15 00:53:45;;;;;;;7.83;1.37;;;;;;;;;;4801174;28;20200;-75
2021/06/15 00:56:10;;;;;;;14.33;2.10;;;7.70;1.00;;;;;;4800326;28;20287;-79
2021/06/15 00:58:33;;;;;;;7.53;1.23;;;7.60;1.00;;;;;;4802317;28;20274;-75
2021/06/15 01:00:58;;;;;;;10.53;1.70;;;;;;;;;;4797588;28;20228;-78
2021/06/15 01:03:23;;;;;;;10.83;1.67;;;7.60;1.00;;;;;;4802022;28;20610;-76
2021/06/15 01:05:47;;;;;;;11.47;1.83;;;7.60;1.00;;;;;;4802074;28;20184;-79
2021/06/15 01:08:22;;;;;;;16.43;2.43;;;7.60;1.00;;;;;;4799841;28;20941;-77
2021/06/15 01:10:56;;;;;;;9.97;1.57;;;7.50;1.00;;;;;;4796090;28;20200;-79
2021/06/15 01:13:38;;;;;;;19.27;2.80;;;7.50;1.00;;;;;;4800245;28;20243;-79
2021/06/15 01:16:06;;;;;;;9.73;1.57;;;6.40;1.00;;;;;;4800393;28;20278;-74
2021/06/15 01:18:31;;;;;;;12.17;1.83;;;7.40;1.00;;;;;;4806211;28;20219;-78
2021/06/15 01:20:57;;;;;;;8.17;1.30;;;7.40;1.00;;;;;;4798016;28;20677;-78
2021/06/15 01:23:45;;;;;;;19.93;2.83;;;7.40;1.00;;;;;;4801359;28;20312;-79
2021/06/15 01:26:19;;;;;;;18.00;2.57;;;7.40;1.00;;;;;;4801135;28;20184;-80
2021/06/15 01:28:47;;;;;;;7.87;1.30;;;7.40;1.00;;;;;;4800099;28;20243;-76
2021/06/15 01:31:14;;;;;;;23.80;3.30;;;7.40;1.00;;;;;;4801226;28;20231;-78
2021/06/15 01:33:42;;;;;;;10.67;1.63;;;6.20;1.00;;;;;;4800278;28;20196;-80
2021/06/15 01:36:08;;;;;;;11.77;1.80;;;6.50;1.00;;;;;;4801177;28;20270;-78
2021/06/15 01:38:43;;;;;;;11.10;1.77;;;7.30;1.00;;;;;;4796678;28;20239;-79
2021/06/15 01:41:11;;;;;;;12.97;1.97;;;7.30;1.00;;;;;;4799927;28;20258;-79
2021/06/15 01:43:37;;;;;;;7.93;1.33;;;7.30;1.00;;;;;;4800902;28;20613;-79
2021/06/15 01:46:05;;;;;;;6.53;1.20;;;7.20;1.00;;;;;;4801682;28;20183;-79
2021/06/15 01:48:34;;;;;;;12.13;1.90;;;7.20;1.00;;;;;;4776733;28;20790;-79
2021/06/15 01:50:59;;;;;;;8.80;1.47;;;;;;;;;;4799980;28;20235;-80
2021/06/15 01:53:25;;;;;;;9.63;1.53;;;7.20;1.00;;;;;;4801002;28;20196;-77
2021/06/15 01:55:54;;;;;;;10.37;1.70;;;7.20;1.00;;;;;;4799844;28;20554;-79
2021/06/15 01:58:22;;;;;;;20.30;2.90;;;7.10;1.00;;;;;;4799630;28;20219;-80
2021/06/15 02:00:46;;;;;;;29.60;4.23;;;7.10;1.00;;;;;;4799446;28;20246;-80
2021/06/15 02:03:12;;;;;;;21.30;3.07;;;7.10;1.00;;;;;;4800210;28;20188;-79
2021/06/15 02:05:39;;;;;;;9.60;1.73;;;7.10;1.00;;;;;;4799792;28;20223;-80
2021/06/15 02:08:04;;;;;;;7.57;1.30;;;7.00;1.00;;;;;;4800582;28;20263;-76
2021/06/15 02:10:32;;;;;;;8.83;1.47;;;7.00;1.00;;;;;;4801146;28;20199;-80
2021/06/15 02:13:06;;;;;;;10.70;1.83;;;7.00;1.00;;;;;;4796601;28;20227;-79
2021/06/15 02:15:57;;;;;;;8.77;1.60;;;7.00;1.00;;;;;;4797293;28;20216;-80
2021/06/15 02:18:54;;;;;;;13.87;2.13;;;6.90;1.00;;;;;;4746008;28;20278;-78
2021/06/15 02:21:33;;;;;;;11.17;1.73;;;6.80;1.00;;;;;;4781687;28;20200;-78
2021/06/15 02:24:00;;;;;;;8.90;1.57;;;6.80;1.00;;;;;;4796132;28;20244;-80
2021/06/15 02:26:26;;;;;;;8.20;1.50;;;6.80;1.00;;;;;;4799323;28;20726;-80
2021/06/15 02:28:49;;;;;;;6.13;1.20;;;;;;;;;;4800679;28;20184;-80
2021/06/15 02:31:17;;;;;;;16.10;2.50;;;6.70;1.00;;;;;;4782815;28;20645;-78
2021/06/15 02:33:45;;;;;;;11.87;2.00;;;6.70;1.00;;;;;;4800353;28;20184;-79
2021/06/15 02:36:16;;;;;;;19.97;3.00;;;6.70;1.00;;;;;;4782457;28;20216;-78
2021/06/15 02:38:42;;;;;;;11.80;1.93;;;6.70;1.00;;;;;;4799892;28;20667;-81
2021/06/15 02:41:07;;;;;;;13.43;2.23;;;6.70;1.00;;;;;;4798902;28;20231;-79
2021/06/15 02:43:33;;;;;;;11.10;1.97;;;6.70;1.00;;;;;;4797923;28;20638;-80
2021/06/15 02:45:58;;;;;;;10.90;1.90;;;6.70;1.00;;;;;;4796522;28;20184;-80
2021/06/15 02:48:23;;;;;;;19.50;2.97;;;6.70;1.00;;;;;;4799604;28;20191;-80
2021/06/15 02:50:48;;;;;;;7.23;1.40;;;6.70;1.00;;;;;;4800255;28;20607;-74
2021/06/15 02:53:16;;;;;;;14.57;2.27;;;6.70;4.10;;;;;;4799757;28;20900;-80
2021/06/15 02:55:41;;;;;;;7.80;1.40;;;6.70;15.20;;;;;;4799058;28;20220;-80
2021/06/15 02:58:05;;;;;;;8.93;1.53;;;6.80;23.90;;;;;;4798912;28;20282;-78
2021/06/15 03:00:28;;;;;;;51.30;6.93;;;;;;;;;;4791293;28;20603;-78
2021/06/15 03:02:51;;;;;;;9.07;1.53;;;;;;;;;;4799544;28;20721;-80
2021/06/15 03:05:17;;;;;;;21.33;3.10;;;6.80;29.10;;;;;;4798157;28;20246;-79
2021/06/15 03:07:42;;;;;;;8.83;1.50;;;;;;;;;;4798748;28;20204;-78
2021/06/15 03:10:09;;;;;;;14.50;2.17;;;6.80;22.90;;;;;;4797574;28;20188;-80
2021/06/15 03:12:31;;;;;;;9.43;1.57;;;;;;;;;;4797329;28;20180;-80
2021/06/15 03:15:02;;;;;;;8.20;1.50;;;6.80;20.70;;;;;;4799707;28;20180;-80
2021/06/15 03:17:27;;;;;;;6.87;1.30;;;6.80;25.50;;;;;;4810408;28;20689;-78
2021/06/15 03:19:57;;;;;;;7.90;1.47;;;6.90;30.00;;;;;;4794764;28;20275;-79
2021/06/15 03:22:23;;;;;;;21.77;3.07;;;6.90;32.60;;;;;;4799831;28;20215;-80
2021/06/15 03:24:51;;;;;;;10.53;1.77;;;6.90;38.70;;;;;;4800045;28;20224;-80
2021/06/15 03:27:19;;;;;;;14.87;2.23;;;7.00;49.40;;;;;;4798036;28;20200;-80
2021/06/15 03:29:43;;;;;;;5.20;1.03;;;7.10;54.00;;;;;;4799007;28;20219;-77
2021/06/15 03:32:09;;;;;;;9.60;1.50;;;7.10;58.50;;;;;;4799713;28;20199;-80
2021/06/15 03:34:33;;;;;;;8.47;1.50;;;7.10;59.20;;;;;;4798299;28;20200;-79
2021/06/15 03:36:58;;;;;;;11.60;1.83;;;7.20;56.10;;;;;;4800632;28;20902;-80
2021/06/15 03:39:23;;;;;;;9.47;1.60;;;7.20;57.10;;;;;;4797990;28;20228;-74
2021/06/15 03:41:47;;;;;;;7.73;1.40;;;;;;;;;;4798200;28;20192;-80
2021/06/15 03:44:13;;;;;;;16.43;2.47;;;7.40;75.80;;;;;;4799398;28;20550;-79
2021/06/15 03:46:39;;;;;;;6.27;1.17;;;7.40;76.30;;;;;;4799041;28;20192;-80
2021/06/15 03:49:04;;;;;;;5.10;1.10;;;7.50;75.80;;;;;;4799320;28;20187;-75
2021/06/15 03:51:30;;;;;;;9.53;1.60;;;7.50;76.00;;;;;;4795874;28;20258;-80
2021/06/15 03:54:05;;;;;;;9.77;1.60;;;7.60;80.60;;;;;;4799470;28;20646;-79
2021/06/15 03:56:28;;;;;;;9.47;1.50;;;;;;;;;;4790792;28;20253;-80
2021/06/15 03:58:51;;;;;;;9.60;1.67;;;7.70;93.40;;;;;;4798379;28;20228;-78
2021/06/15 04:01:16;;;;;;;18.60;2.80;;;7.80;96.80;;;;;;4797361;28;20781;-81
2021/06/15 04:03:41;;;;;;;10.77;1.77;;;7.90;99.90;;;;;;4798104;28;20200;-80
2021/06/15 04:06:04;;;;;;;4.70;0.90;;;8.00;99.90;;;;;;4798908;28;20607;-77
2021/06/15 04:08:27;;;;;;;9.83;1.63;;;8.10;99.90;;;;;;4796578;28;20197;-80
2021/06/15 04:10:53;;;;;;;10.50;1.73;;;8.20;99.90;;;;;;4798880;28;20180;-81
2021/06/15 04:13:18;;;;;;;16.03;2.40;;;8.30;99.90;;;;;;4798672;28;20224;-79
2021/06/15 04:16:02;;;;;;;6.53;1.20;;;8.40;99.90;;;;;;4801191;28;20176;-80
2021/06/15 04:18:32;;;;;;;9.20;1.60;;;8.50;99.90;;;;;;4800920;28;20188;-79
2021/06/15 04:20:59;;;;;;;8.37;1.40;;;8.60;99.90;;;;;;4803016;28;20192;-81
2021/06/15 04:23:30;;;;;;;15.30;2.33;;;8.80;99.90;;;;;;4802595;28;20744;-78
2021/06/15 04:25:53;;;;;;;9.10;1.53;;;8.90;99.90;;;;;;4802649;28;20244;-80
2021/06/15 04:28:16;;;;;;;17.27;2.63;;;9.10;99.90;;;;;;4802151;28;20184;-81
2021/06/15 04:30:40;;;;;;;7.00;1.30;;;;;;;;;;4801413;28;20216;-81
2021/06/15 04:33:06;;;;;;;4.67;0.93;;;9.30;99.90;;;;;;4801356;28;20192;-77
2021/06/15 04:35:33;;;;;;;11.83;1.93;;;9.50;99.90;;;;;;4795342;28;20184;-80
2021/06/15 04:37:57;;;;;;;7.47;1.33;;;10.70;99.90;;;;;;4801544;28;20185;-80
2021/06/15 04:40:25;;;;;;;22.03;3.30;;;9.70;99.90;;;;;;4801547;28;20212;-79
2021/06/15 04:42:58;;;;;;;8.73;1.43;;;9.90;99.90;;;;;;4802196;28;20188;-75
2021/06/15 04:45:26;;;;;;;19.63;2.87;;;10.00;99.90;;;;;;4800949;28;20597;-80
2021/06/15 04:47:59;;;;;;;8.90;1.43;;;10.20;99.90;;;;;;4800966;28;20629;-80
2021/06/15 04:50:28;;;;;;;6.83;1.23;;;10.30;99.90;;;;;;4801910;28;20191;-77
2021/06/15 04:52:54;;;;;;;6.43;1.10;;;10.40;99.90;;;;;;4802350;28;20647;-77
2021/06/15 04:55:21;;;;;;;19.27;2.87;;;10.50;99.90;;;;;;4785008;28;20184;-79
2021/06/15 04:57:45;;;;;;;6.53;1.17;;;10.60;99.90;;;;;;4800391;28;20247;-79
2021/06/15 05:00:09;;;;;;;14.47;2.10;;;10.90;99.90;;;;;;4802094;28;20690;-80
2021/06/15 05:02:32;;;;;;;8.07;1.30;;;10.80;99.90;;;;;;4799505;28;20662;-80
2021/06/15 05:04:58;;;;;;;8.63;1.47;;;10.70;99.90;;;;;;4798332;28;20240;-79
2021/06/15 05:07:22;;;;;;;14.73;2.20;;;11.00;99.90;;;;;;4800820;28;20204;-80
2021/06/15 05:09:50;;;;;;;7.00;1.20;;;11.00;99.90;;;;;;4802699;28;20654;-79
2021/06/15 05:12:14;;;;;;;19.13;2.70;;;11.10;99.90;;;;;;4801046;28;20251;-80
2021/06/15 05:14:39;;;;;;;9.53;1.30;;;11.20;99.90;;;;;;4802544;28;20592;-80
2021/06/15 05:17:04;;;;;;;5.70;1.13;;;11.30;99.90;;;;;;4802589;28;20247;-74
2021/06/15 05:19:27;;;;;;;6.63;1.10;;;11.40;96.60;;;;;;4802557;28;20215;-80
2021/06/15 05:21:59;;;;;;;6.87;1.10;;;11.50;92.20;;;;;;4801344;28;20654;-79
2021/06/15 05:24:32;;;;;;;5.37;1.00;;;11.60;73.80;;;;;;4802575;28;20383;-77
2021/06/15 05:26:56;;;;;;;10.20;1.50;;;11.70;46.80;;;;;;4800784;28;20257;-79
2021/06/15 05:29:18;;;;;;;16.37;2.33;;;;;;;;;;4802016;28;20620;-78
2021/06/15 05:31:41;;;;;;;9.17;1.50;;;;;;;;;;4802237;28;20192;-79
2021/06/15 05:34:04;;;;;;;6.50;1.10;;;;;;;;;;4800801;28;20192;-79
2021/06/15 05:36:26;;;;;;;7.83;1.23;;;;;;;;;;4800786;28;20279;-79
2021/06/15 05:38:49;;;;;;;7.67;1.23;;;;;;;;;;4801212;28;20200;-79
2021/06/15 05:41:12;;;;;;;14.53;2.17;;;;;;;;;;4802049;28;20184;-77
2021/06/15 05:43:36;;;;;;;12.03;1.73;;;12.40;1.00;;;;;;4802248;28;20243;-79
2021/06/15 05:45:59;;;;;;;8.57;1.30;;;;;;;;;;4801996;28;20589;-79
2021/06/15 05:48:21;;;;;;;13.00;2.00;;;;;;;;;;4801779;28;20595;-78
2021/06/15 05:50:44;;;;;;;5.93;1.10;;;;;;;;;;4802052;28;20603;-79
2021/06/15 05:53:07;;;;;;;15.67;2.10;;;;;;;;;;4801227;28;20258;-80
2021/06/15 05:55:30;;;;;;;6.33;1.03;;;13.30;99.90;;;;;;4801949;28;20221;-79
2021/06/15 05:57:53;;;;;;;12.17;1.80;;;;;;;;;;4800549;28;20196;-78
2021/06/15 06:00:18;;;;;;;17.70;2.50;;;13.50;1.00;;;;;;4800431;28;20231;-79
2021/06/15 06:02:41;;;;;;;7.57;1.20;;;;;;;;;;4799998;28;20204;-79
2021/06/15 06:08:04;;;;;;;4.70;0.83;;;;;;;;;;4801611;28;20196;-78
2021/06/15 06:08:06;;;;;;;8.10;1.20;;;13.90;1.00;;;;;;4801707;28;20255;-79
2021/06/15 06:10:29;;;;;;;9.30;1.50;;;;;;;;;;4801604;28;20705;-79
2021/06/15 06:12:52;;;;;;;12.73;1.80;;;;;;;;;;4801630;28;20219;-77
2021/06/15 06:15:17;;;;;;;17.27;2.27;;;14.40;99.90;;;;;;4801366;28;20188;-78
2021/06/15 06:17:41;;;;;;;10.40;1.60;;;14.60;99.90;;;;;;4801356;28;20579;-77
2021/06/15 06:20:04;;;;;;;5.50;0.93;;;;;;;;;;4801083;28;20274;-77
2021/06/15 06:22:26;;;;;;;11.03;1.63;;;;;;;;;;4800228;28;20250;-79
2021/06/15 06:24:49;;;;;;;12.00;1.67;;;15.10;1.00;;;;;;4791268;28;20200;-79
2021/06/15 06:27:12;;;;;;;13.43;1.93;;;;;;;;;;4799705;28;20200;-78
2021/06/15 06:29:35;;;;;;;14.03;2.03;;;;;;;;;;4800047;28;20701;-79
2021/06/15 06:31:59;;;;;;;15.27;2.17;;;15.40;99.90;;;;;;4800051;28;20250;-79
2021/06/15 06:34:22;;;;;;;10.57;1.63;;;;;;;;;;4798260;28;20196;-79
2021/06/15 06:36:46;;;;;;;9.80;1.43;;;15.60;99.90;;;;;;4798894;28;20228;-79
2021/06/15 06:39:09;;;;;;;21.73;2.97;;;15.60;99.90;;;;;;4799535;28;20639;-79
2021/06/15 06:41:33;;;;;;;14.27;2.13;;;;;;;;;;4799880;28;20215;-80
2021/06/15 06:43:55;;;;;;;12.10;1.73;;;;;;;;;;4799502;28;20188;-78
2021/06/15 06:46:19;;;;;;;20.10;2.83;;;;;;;;;;4798618;28;20188;-79
2021/06/15 06:48:42;;;;;;;11.03;1.63;;;16.30;99.90;;;;;;4799804;28;20258;-78
2021/06/15 06:51:05;;;;;;;16.43;2.33;;;;;;;;;;4799168;28;20247;-80
2021/06/15 06:53:28;;;;;;;15.20;2.20;;;;;;;;;;4799026;28;20239;-78
2021/06/15 06:55:51;;;;;;;15.00;2.13;;;;;;;;;;4798874;28;20594;-80
2021/06/15 06:58:14;;;;;;;22.17;2.90;;;;;;;;;;4798997;28;20200;-83
2021/06/15 07:00:36;;;;;;;94.63;11.73;;;;;;;;;;4797560;28;20274;-80
2021/06/15 07:02:59;;;;;;;13.93;2.00;;;;;;;;;;4799381;28;20609;-77
2021/06/15 07:05:23;;;;;;;11.13;1.57;;;17.50;1.00;;;;;;4798791;28;20188;-81
2021/06/15 07:07:51;;;;;;;12.23;1.73;;;17.80;1.00;;;;;;4798647;28;20206;-81
2021/06/15 07:10:14;;;;;;;19.27;2.50;;;;;;;;;;4799422;28;20188;-80
2021/06/15 07:12:37;;;;;;;10.10;1.43;;;;;;;;;;4799254;28;20654;-80
2021/06/15 07:15:00;;;;;;;13.07;1.80;;;;;;;;;;4798704;28;20192;-80
2021/06/15 07:17:22;;;;;;;22.27;2.97;;;;;;;;;;4797086;28;20196;-78
2021/06/15 07:19:45;;;;;;;10.40;1.50;;;;;;;;;;4797660;28;20254;-80
2021/06/15 07:22:09;;;;;;;23.20;3.00;;;20.50;99.90;;;;;;4799223;28;20267;-80
2021/06/15 07:24:32;;;;;;;12.00;1.60;;;;;;;;;;4798273;28;20187;-78
2021/06/15 07:26:55;;;;;;;14.07;1.87;;;;;;;;;;4799184;28;20234;-80
2021/06/15 07:29:17;;;;;;;20.13;2.60;;;;;;;;;;4796735;28;20286;-73
2021/06/15 07:31:40;;;;;;;17.23;2.30;;;;;;;;;;4797954;28;20188;-79
2021/06/15 07:34:03;;;;;;;11.83;1.60;;;;;;;;;;4797140;28;20624;-75
2021/06/15 07:36:26;;;;;;;13.37;1.73;;;;;;;;;;4799097;28;20682;-80
2021/06/15 07:38:51;;;;;;;19.93;2.57;;;21.40;99.90;;;;;;4798137;28;20235;-79
2021/06/15 07:41:14;;;;;;;23.07;2.97;;;;;;;;;;4797373;28;20287;-79
2021/06/15 07:43:37;;;;;;;13.50;1.87;;;;;;;;;;4798773;28;20242;-83
2021/06/15 07:46:00;;;;;;;12.37;1.63;;;;;;;;;;4799064;28;20195;-80
2021/06/15 07:48:25;;;;;;;13.80;1.80;;;;;;;;;;4800546;28;20190;-79
2021/06/15 07:50:48;;;;;;;16.30;2.10;;;;;;;;;;4800292;28;20212;-76
2021/06/15 07:53:11;;;;;;;38.80;4.77;;;;;;;;;;4785645;28;20190;-79
2021/06/15 07:55:35;;;;;;;10.33;1.40;;;22.30;99.90;;;;;;4787199;28;20253;-80
2021/06/15 07:57:57;;;;;;;6.83;0.90;;;;;;;;;;4787088;28;20192;-80
2021/06/15 08:00:20;;;;;;;31.50;3.90;;;;;;;;;;4785272;28;20228;-73
2021/06/15 08:02:44;;;;;;;17.27;2.17;;;21.90;99.90;;;;;;4783324;29;20934;-75
2021/06/15 08:05:08;;;;;;;22.77;2.87;;;21.80;99.90;;;;;;4785528;28;20600;-77
2021/06/15 08:07:31;;;;;;;15.60;2.03;;;;;;;;;;4786468;28;20661;-77
2021/06/15 08:09:54;;;;;;;14.17;1.90;;;;;;;;;;4786342;28;20190;-77
2021/06/15 08:12:20;;;;;;;17.07;2.13;;;21.50;99.90;;;;;;4785439;28;20566;-77
2021/06/15 08:14:43;;;;;;;9.50;1.30;;;;;;;;;;4785870;28;20256;-75
2021/06/15 08:17:05;;;;;;;14.70;1.87;;;;;;;;;;4786315;28;20255;-77
2021/06/15 08:19:30;;;;;;;16.43;2.10;;;;;;;;;;4801950;28;20242;-77
2021/06/15 08:21:55;;;;;;;21.77;2.80;;;;;;;;;;4804386;28;20364;-77
2021/06/15 08:24:18;;;;;;;21.73;2.80;;;;;;;;;;4803559;28;20186;-71
2021/06/15 08:26:41;;;;;;;12.60;1.60;;;;;;;;;;4805069;28;20191;-79
2021/06/15 08:29:05;;;;;;;10.33;1.43;;;21.50;99.90;;;;;;4803155;28;20226;-75
2021/06/15 08:31:28;;;;;;;13.03;1.73;;;;;;;;;;4804602;28;20659;-77
2021/06/15 08:33:50;;;;;;;18.13;2.30;;;;;;;;;;4803513;28;20190;-76
2021/06/15 08:36:13;;;;;;;23.03;2.87;;;;;;;;;;4804349;28;20702;-75
2021/06/15 08:38:36;;;;;;;21.33;2.80;;;;;;;;;;4804980;28;20184;-77
2021/06/15 08:40:59;;;;;;;13.03;1.67;;;;;;;;;;4804735;28;20286;-77
2021/06/15 08:43:24;;;;;;;28.87;3.70;;;;;;;;;;4803913;28;20593;-77
2021/06/15 08:45:49;;;;;;;13.43;1.73;;;22.10;99.90;;;;;;4803008;28;20264;-80
2021/06/15 08:48:13;;;;;;;19.07;2.47;;;22.30;99.90;;;;;;4804709;28;20638;-76
2021/06/15 08:50:37;;;;;;;20.80;2.50;;;22.40;99.90;;;;;;4804648;28;20195;-77
2021/06/15 08:52:59;;;;;;;19.43;2.33;;;;;;;;;;4805024;28;20227;-76
2021/06/15 08:55:28;;;;;;;12.90;1.60;;;22.70;99.90;;;;;;4802685;28;20356;-76
2021/06/15 08:58:03;;;;;;;16.47;2.00;;;22.90;99.90;;;;;;4804847;28;20639;-78
2021/06/15 09:00:26;;;;;;;60.47;7.00;;;;;;;;;;4800435;28;20203;-76
2021/06/15 09:02:50;;;;;;;17.60;2.20;;;23.50;99.90;;;;;;4801831;28;20200;-77
2021/06/15 09:05:18;;;;;;;46.80;5.47;;;23.80;99.90;;;;;;4800452;28;20236;-76
2021/06/15 09:07:59;;;;;;;21.50;2.63;;;24.20;99.90;;;;;;4801056;28;20185;-75
2021/06/15 09:10:27;;;;;;;17.67;2.37;;;24.70;99.90;;;;;;4801529;28;20253;-78
2021/06/15 09:12:49;;;;;;;18.53;2.27;;;;;;;;;;4801484;28;20249;-76
2021/06/15 09:15:21;;;;;;;30.23;3.47;;;25.70;99.90;;;;;;4800745;28;20721;-78
2021/06/15 09:17:45;;;;;;;15.27;2.17;;;;;;;;;;4801111;28;20252;-76
2021/06/15 09:20:20;;;;;;;42.43;23.33;;;26.60;99.90;;;;;;4801329;28;20664;-79
2021/06/15 09:22:43;;;;;;;33.37;29.80;;;;;;;;;;4800765;28;20219;-77
2021/06/15 09:25:08;;;;;;;39.47;27.33;;;28.20;99.90;;;;;;4800131;28;20250;-78
2021/06/15 09:27:32;;;;;;;176.53;163.23;;;29.60;99.90;;;;;;4800426;28;20202;-81
2021/06/15 09:29:57;;;;;;;360.50;292.53;;;31.50;99.90;;;;;;4800268;28;20301;-76
2021/06/15 09:32:21;;;;;;;437.37;315.33;;;33.30;99.90;;;;;;4801135;28;20565;-77
2021/06/15 09:35:02;;;;;;;457.27;318.03;;;34.90;99.90;;;;;;4799105;28;20207;-82
2021/06/15 09:37:32;;;;;;;359.65;323.63;;;36.40;99.90;;;;;;4800913;28;20220;-78
2021/06/15 09:39:55;;;;;;;475.53;369.50;;;;;;;;;;4800165;28;20589;-78
2021/06/15 09:42:18;;;;;;;462.38;345.92;;;39.10;99.90;;;;;;4800610;28;20706;-75
2021/06/15 09:44:40;;;;;;;469.13;379.55;;;;;;;;;;4799966;28;20607;-78
2021/06/15 09:47:05;;;;;;;474.75;383.48;;;40.70;99.90;;;;;;4800432;28;20243;-76
2021/06/15 09:49:30;;;;;;;459.67;383.75;;;41.50;99.90;;;;;;4800215;28;20188;-79
2021/06/15 09:52:20;;;;;;;460.15;394.52;;;42.30;99.90;;;;;;4800816;28;20188;-79
2021/06/15 09:54:47;;;;;;;449.73;388.30;;;43.30;99.90;;;;;;4799994;28;20243;-77
2021/06/15 09:57:13;;;;;;;487.50;433.80;;;44.30;99.90;;;;;;4800826;28;20192;-78
2021/06/15 09:59:35;;;;;;;497.17;443.02;;;;;;;;;;4800126;28;20242;-78
2021/06/15 10:01:58;;;;;;;504.35;451.67;;;;;;;;;;4797240;28;20677;-78
2021/06/15 10:04:23;;;;;;;519.70;465.40;;;45.30;99.90;;;;;;4799710;28;20183;-80
2021/06/15 10:06:48;;;;;;;517.85;464.95;;;45.50;99.90;;;;;;4799414;28;20192;-79
2021/06/15 10:09:11;;;;;;;520.38;465.95;;;;;;;;;;4800113;28;20195;-79
2021/06/15 10:11:35;;;;;;;524.70;471.65;;;45.70;99.90;;;;;;4799760;28;20188;-78
2021/06/15 10:13:58;;;;;;;534.80;481.73;;;;;;;;;;4800596;28;20720;-79
2021/06/15 10:16:21;;;;;;;521.08;467.85;;;;;;;;;;4799980;28;20207;-80
2021/06/15 10:18:43;;;;;;;515.38;463.70;;;;;;;;;;4801082;28;20757;-76
2021/06/15 10:21:06;;;;;;;515.97;462.17;;;;;;;;;;4800286;28;20200;-78
2021/06/15 10:23:29;;;;;;;519.25;465.20;;;;;;;;;;4799856;28;20247;-76
2021/06/15 10:25:52;;;;;;;509.80;457.52;;;;;;;;;;4800818;28;20258;-78
2021/06/15 10:28:16;;;;;;;502.08;448.90;;;43.50;99.90;;;;;;4799542;28;20554;-79
2021/06/15 10:30:40;;;;;;;502.13;449.67;;;44.00;99.90;;;;;;4801103;28;20277;-80
2021/06/15 10:33:11;;;;;;;504.48;452.25;;;44.80;99.90;;;;;;4799739;28;20199;-76
2021/06/15 10:35:37;;;;;;;513.17;460.60;;;45.20;99.90;;;;;;4800755;28;20692;-78
2021/06/15 10:38:00;;;;;;;515.45;462.88;;;;;;;;;;4799895;28;20247;-78
2021/06/15 10:40:51;;;;;;;523.85;471.42;;;46.50;99.90;;;;;;4800942;28;20239;-76
2021/06/15 10:43:42;;;;;;;527.53;471.30;;;46.50;99.90;;;;;;4798882;28;20266;-78
2021/06/15 10:46:23;;;;;;;510.50;458.35;;;46.00;99.90;;;;;;4800655;28;20535;-79
2021/06/15 10:48:48;;;;;;;513.25;460.33;;;45.20;99.90;;;;;;4800907;28;20642;-78
2021/06/15 10:51:23;;;;;;;501.05;448.90;;;44.30;99.90;;;;;;4800601;28;20427;-74
2021/06/15 10:53:46;;;;;;;496.48;444.45;;;;;;;;;;4800182;28;20603;-77
2021/06/15 10:56:10;;;;;;;492.65;439.80;;;43.10;99.90;;;;;;4799362;28;20191;-77
2021/06/15 10:59:04;;;;;;;487.17;435.65;;;42.50;99.90;;;;;;4800431;28;20188;-79
2021/06/15 11:01:28;;;;;;;482.60;431.75;;;42.40;99.90;;;;;;4798559;28;20187;-79
2021/06/15 11:03:54;;;;;;;475.88;424.77;;;42.20;99.90;;;;;;4798621;28;20363;-79
2021/06/15 11:06:18;;;;;;;478.77;428.27;;;42.40;99.90;;;;;;4800435;28;20219;-78
2021/06/15 11:08:41;;;;;;;481.92;431.80;;;;;;;;;;4799253;28;20705;-78
2021/06/15 11:11:05;;;;;;;481.65;430.70;;;42.70;99.90;;;;;;4799677;28;20662;-77
2021/06/15 11:13:43;;;;;;;479.40;428.98;;;42.60;99.90;;;;;;4799416;28;20203;-77
2021/06/15 11:16:07;;;;;;;480.02;429.80;;;42.90;99.90;;;;;;4799124;28;20234;-80
2021/06/15 11:18:30;;;;;;;479.50;429.67;;;;;;;;;;4800145;28;20262;-79
2021/06/15 11:20:53;;;;;;;478.15;428.13;;;;;;;;;;4798550;28;20199;-79
2021/06/15 11:23:33;;;;;;;495.38;435.85;;;41.80;99.90;;;;;;4797404;28;20270;-77
2021/06/15 11:26:00;;;;;;;474.55;424.58;;;40.90;99.90;;;;;;4799847;28;20513;-77
2021/06/15 11:28:44;;;;;;;472.42;423.30;;;41.00;99.90;;;;;;4799263;28;20642;-78
2021/06/15 11:31:33;;;;;;;471.25;419.75;;;41.20;99.90;;;;;;4798309;28;20242;-80
2021/06/15 11:34:20;;;;;;;467.23;416.00;;;40.70;99.90;;;;;;4798416;28;20191;-78
2021/06/15 11:36:45;;;;;;;463.35;412.25;;;40.20;99.90;;;;;;4798978;28;20652;-76
2021/06/15 11:39:37;;;;;;;479.05;414.42;;;40.30;99.90;;;;;;4797519;28;20180;-76
2021/06/15 11:42:20;;;;;;;466.30;407.02;;;40.90;99.90;;;;;;4798966;28;20200;-78
2021/06/15 11:45:00;;;;;;;458.92;400.55;;;41.00;99.90;;;;;;4798304;28;20176;-80
2021/06/15 11:47:32;;;;;;;463.02;401.50;;;40.70;99.90;;;;;;4798849;28;20246;-81
2021/06/15 11:50:27;;;;;;;461.13;410.70;;;39.80;99.90;;;;;;4798382;28;20638;-80
2021/06/15 11:52:53;;;;;;;442.92;395.50;;;39.00;99.90;;;;;;4798677;28;20184;-82
2021/06/15 11:55:15;;;;;;;443.98;397.85;;;;;;;;;;4798059;28;20639;-81
2021/06/15 11:57:38;;;;;;;444.95;397.95;;;;;;;;;;4798968;28;20196;-79
2021/06/15 12:00:01;;;;;;;464.63;415.52;;;;;;;;;;4796858;28;20749;-78
2021/06/15 12:02:25;;;;;;;465.08;414.38;;;42.00;99.90;;;;;;4796952;28;20212;-78
2021/06/15 12:05:05;;;;;;;470.20;418.85;;;42.50;99.90;;;;;;4797805;28;20196;-75
2021/06/15 12:07:27;;;;;;;473.95;424.08;;;;;;;;;;4799120;28;20238;-82
2021/06/15 12:10:03;;;;;;;478.70;426.20;;;43.60;99.90;;;;;;4796793;28;20250;-79
2021/06/15 12:12:26;;;;;;;483.90;431.90;;;;;;;;;;4797862;28;20254;-79
2021/06/15 12:14:49;;;;;;;474.20;422.70;;;;;;;;;;4798065;28;20192;-78
2021/06/15 12:17:12;;;;;;;479.08;426.52;;;44.80;99.90;;;;;;4798091;28;20255;-81
2021/06/15 12:19:38;;;;;;;481.25;429.75;;;44.70;99.90;;;;;;4798595;28;20184;-81
2021/06/15 12:22:01;;;;;;;480.83;430.48;;;;;;;;;;4797833;28;20717;-82
2021/06/15 12:24:24;;;;;;;471.23;421.35;;;;;;;;;;4796410;28;20196;-82
2021/06/15 12:26:47;;;;;;;474.42;425.92;;;;;;;;;;4797299;28;20315;-82
2021/06/15 12:29:11;;;;;;;475.38;425.75;;;44.30;99.90;;;;;;4798277;28;20262;-81
2021/06/15 12:31:35;;;;;;;478.30;426.70;;;44.30;99.90;;;;;;4796101;28;20247;-80
2021/06/15 12:33:59;;;;;;;481.13;430.80;;;44.90;99.90;;;;;;4798009;28;20196;-82
2021/06/15 12:36:25;;;;;;;490.10;438.25;;;45.40;99.90;;;;;;4800359;28;20278;-82
2021/06/15 12:38:49;;;;;;;470.02;420.65;;;45.30;99.90;;;;;;4802125;28;20240;-78
2021/06/15 12:41:14;;;;;;;471.65;420.92;;;45.00;99.90;;;;;;4800561;28;20188;-82
2021/06/15 12:43:37;;;;;;;471.63;422.38;;;44.80;99.90;;;;;;4800124;28;20211;-81
2021/06/15 12:46:18;;;;;;;465.75;417.45;;;44.60;99.90;;;;;;4800661;28;20224;-80
2021/06/15 12:48:54;;;;;;;468.38;420.75;;;44.10;99.90;;;;;;4801928;28;20231;-80
2021/06/15 12:51:19;;;;;;;457.45;413.15;;;44.10;99.90;;;;;;4800683;28;20207;-74
2021/06/15 12:53:43;;;;;;;445.35;405.08;;;44.20;99.90;;;;;;4800265;28;20187;-80
2021/06/15 12:56:17;;;;;;;443.00;403.48;;;43.90;99.90;;;;;;4800578;28;20247;-80
2021/06/15 12:58:40;;;;;;;445.58;404.73;;;;;;;;;;4801546;28;20594;-83
2021/06/15 13:01:13;;;;;;;452.10;409.85;;;43.70;99.90;;;;;;4799670;28;20239;-76
2021/06/15 13:03:37;;;;;;;453.63;411.20;;;44.50;99.90;;;;;;4800335;28;20208;-80
2021/06/15 13:06:10;;;;;;;452.40;410.27;;;44.50;99.90;;;;;;4801164;28;20246;-83
2021/06/15 13:08:37;;;;;;;455.80;412.58;;;44.50;99.90;;;;;;4801157;28;20218;-76